Airfield :
LOGIN :

Register | Disclaimer

   EN    FR    IT 

 










Legend :    VFR   Marginal VFR   IFR   Intensive IFR   Very Intensive IFR
Visi :
Ceiling :
>= 8 km
>= 3000ft
5 to 8 km
1000 to 3000 ft
1500m to 5 km
500 to 1000 ft
800 to 1500m
200 to 500 ft
< 800m
< 200 ft
Symbols :   Thunderstorms  Fog  Heavy snow  Heavy precipitations  Wind > 20 kt
SIGMETs :     Misc.  Thunderstorms  Icing  Turbulence  Mountain Waves  Volcanic Ashes






- Airport Elevation : 219 ft
- IATA code : DNR


LFRD - Dinard

CURRENT METAR :
  • 202130Z AUTO 07009KT 9999 FEW030/// SCT042/// BKN074/// ///CB 16/15 Q1004 TEMPO 02015G25KT 2000 TSRA BKN008 BKN012CB

EXPIRED METARs :
  • 202100Z AUTO 07009KT 8000 -RA FEW018/// SCT064/// OVC088/// ///CB 17/15 Q1004 TEMPO 02015G25KT 2000 TSRA BKN008 BKN012CB
  • 202030Z AUTO 06011KT 9999 -RA SCT034/// BKN042/// BKN078/// ///CB 17/15 Q1004 TEMPO 02015G25KT 2000 TSRA BKN008 BKN012CB
  • 202000Z AUTO 05008KT 9999 -RA BKN041/// BKN049/// BKN110/// ///TCU 18/16 Q1004 TEMPO 02015G25KT 2000 TSRA BKN008 BKN012CB
  • 201930Z AUTO 03006KT 9999 OVC038 18/16 Q1004 TEMPO 02015G25KT 2000 TSRA BKN008 BKN012CB
  • 201900Z AUTO 02005KT 9999 BKN041 OVC060 17/15 Q1004 TEMPO 02015G25KT 2000 TSRA BKN008 BKN012CB

TAF TAF LFRD
Valid from the 20 at 18:00 until the 21 at 18:00 UTC


201700Z 2018/2118 02010KT 9999 BKN025
TEMPO 2018/2024 3000 SHRA BKN008 BKN015CB
PROB40
TEMPO 2018/2024 02015G25KT 2000 TSRA BKN008 BKN012CB
BECMG 2021/2024 VRB05KT
TEMPO 2100/2106 3000 BR BKN005
BECMG 2103/2106 22008KT
BECMG 2109/2112 03010KT
TEMPO 2109/2118 4000 SHRA BKN015CB
PROB40
TEMPO 2112/2118 2000 TSRA BKN008 BKN015CB
ATIS : +33 2 99 16 81 50



MET'MAP, your aeronautical weather chart ! - Copyright ORBIFLY December 2007 - Disclaimer

ORBIFLY MET'MAP TEAM :

Programming & Development : Alexandra Zaïnal
Concept & original design : Baudouin d'Aumeries
Assistance for programming : Marc-Olivier Méhu
Technical & hardware support : Manuel Goepfert

Contact : metmap@orbifly.com




SOURCES & CREDITS :

   NOAA